createdAt,value
2023-05-19T00:00:24.120Z,82.17
2023-05-19T00:01:24.545Z,82.55
2023-05-19T00:02:24.955Z,83.16
2023-05-19T00:03:25.386Z,83.02
2023-05-19T00:04:27.544Z,83.78
2023-05-19T00:05:25.823Z,83.46
2023-05-19T00:06:27.249Z,83.48
2023-05-19T00:07:31.341Z,83.53
2023-05-19T00:08:31.852Z,84.03
2023-05-19T00:09:29.936Z,84.32
2023-05-19T00:10:30.582Z,84.65
2023-05-19T00:11:30.644Z,84.99
2023-05-19T00:12:30.970Z,85.25
2023-05-19T00:13:31.171Z,85.62
2023-05-19T00:14:31.796Z,86.01
2023-05-19T00:15:31.909Z,85.87
2023-05-19T00:16:32.139Z,85.71
2023-05-19T00:17:32.063Z,85.93
2023-05-19T00:18:32.442Z,85.82
2023-05-19T00:19:32.968Z,85.77
2023-05-19T00:20:33.482Z,86.1
2023-05-19T00:21:36.641Z,86.08
2023-05-19T00:22:34.104Z,85.93
2023-05-19T00:23:34.203Z,86
2023-05-19T00:24:35.234Z,86.08
2023-05-19T00:25:36.796Z,86.19
2023-05-19T00:26:35.455Z,86.37
2023-05-19T00:27:35.786Z,86.65
2023-05-19T00:28:36.285Z,86.81
2023-05-19T00:29:36.501Z,87.2
2023-05-19T00:30:37.563Z,86.74
2023-05-19T00:31:37.249Z,86.5
2023-05-19T00:32:37.554Z,86.93
2023-05-19T00:33:37.873Z,86.91
2023-05-19T00:34:38.381Z,87.09
2023-05-19T00:35:41.438Z,87.1
2023-05-19T00:36:39.339Z,86.93
2023-05-19T00:37:39.335Z,86.58
2023-05-19T00:38:40.138Z,87
2023-05-19T00:39:40.152Z,86.66
2023-05-19T00:40:40.488Z,86.44
2023-05-19T00:41:40.904Z,86.54
2023-05-19T00:42:41.713Z,86.7
2023-05-19T00:43:41.728Z,86.65
2023-05-19T00:44:45.807Z,86.58
2023-05-19T00:45:43.373Z,86.69
2023-05-19T00:46:43.653Z,86.68
2023-05-19T00:47:43.819Z,87.08
2023-05-19T00:48:44.120Z,87.16
2023-05-19T00:49:44.528Z,86.94
2023-05-19T00:50:49.053Z,87.09
2023-05-19T00:51:46.521Z,87.25
2023-05-19T00:52:47.110Z,87.18
2023-05-19T00:53:48.386Z,86.74
2023-05-19T00:54:48.668Z,86.56
2023-05-19T00:55:48.771Z,86.59
2023-05-19T00:56:50.708Z,86.56
2023-05-19T00:57:49.801Z,86.57
2023-05-19T00:58:51.766Z,86.67
2023-05-19T00:59:49.508Z,86.44
2023-05-19T01:00:50.520Z,86.43
2023-05-19T01:01:50.128Z,86.01
2023-05-19T01:02:50.802Z,85.98
2023-05-19T01:03:50.753Z,85.83
2023-05-19T01:04:52.215Z,86.02
2023-05-19T01:05:51.484Z,86.37
2023-05-19T01:06:52.220Z,86.97
2023-05-19T01:07:52.734Z,87.13
2023-05-19T01:08:52.318Z,87.45
2023-05-19T01:09:52.938Z,87.74
2023-05-19T01:10:53.260Z,87.67
2023-05-19T01:11:53.805Z,87.61
2023-05-19T01:12:53.707Z,87.44
2023-05-19T01:13:54.214Z,87.39
2023-05-19T01:14:56.054Z,87.31
2023-05-19T01:31:26.811Z,87.34
2023-05-19T01:32:26.483Z,87.44
2023-05-19T01:33:28.545Z,87.42
2023-05-19T01:34:27.411Z,87.55
2023-05-19T01:36:29.170Z,88.05
2023-05-19T01:37:29.399Z,87.91
2023-05-19T01:38:30.109Z,87.96
2023-05-19T01:39:29.816Z,87.92
2023-05-19T01:40:31.203Z,88.25
2023-05-19T01:41:31.042Z,87.95
2023-05-19T01:42:32.070Z,88.04
2023-05-19T01:43:31.262Z,88.11
2023-05-19T01:44:34.128Z,88.11
2023-05-19T01:45:33.695Z,88.08
2023-05-19T01:46:32.018Z,88.3
2023-05-19T01:47:35.119Z,88.29
2023-05-19T01:48:33.568Z,88.17
2023-05-19T01:49:32.938Z,88.31
2023-05-19T01:50:34.616Z,88.16
2023-05-19T01:51:33.980Z,88.27
2023-05-19T01:52:34.232Z,88.19
2023-05-19T01:53:34.732Z,88
2023-05-19T01:54:34.745Z,88.08
2023-05-19T02:02:02.416Z,88.73
2023-05-19T02:12:29.171Z,89.88
2023-05-19T02:13:30.028Z,90.18
2023-05-19T02:15:34.361Z,90.24
2023-05-19T02:16:29.190Z,89.85
2023-05-19T02:17:31.943Z,89.86
2023-05-19T02:18:30.174Z,90.19
2023-05-19T02:19:38.987Z,90.3
2023-05-19T02:20:32.191Z,90.45
2023-05-19T02:21:31.625Z,90.52
2023-05-19T02:22:32.256Z,90.67
2023-05-19T02:23:32.571Z,90.79
2023-05-19T02:24:32.561Z,90.87
2023-05-19T02:25:32.885Z,90.86
2023-05-19T02:26:33.322Z,90.67
2023-05-19T02:27:35.108Z,90.36
2023-05-19T02:28:34.119Z,90.14
2023-05-19T02:29:34.343Z,89.6
2023-05-19T02:30:34.886Z,89.32
2023-05-19T02:31:35.086Z,89.22
2023-05-19T02:32:35.719Z,89.38
2023-05-19T02:33:35.912Z,89.38
2023-05-19T02:34:36.014Z,89.4
2023-05-19T02:35:36.424Z,89.42
2023-05-19T02:36:36.946Z,89.3
2023-05-19T02:37:37.248Z,89.06
2023-05-19T02:38:37.463Z,88.84
2023-05-19T02:39:37.778Z,89.03
2023-05-19T02:40:38.005Z,89.33
2023-05-19T02:41:39.028Z,89.46
2023-05-19T02:42:40.471Z,89.51
2023-05-19T02:43:39.144Z,89.76
2023-05-19T02:44:39.885Z,89.65
2023-05-19T02:45:39.771Z,89.58
2023-05-19T02:46:40.358Z,89.54
2023-05-19T02:47:40.590Z,89.41
2023-05-19T02:48:40.919Z,89.45
2023-05-19T02:49:41.334Z,89.54
2023-05-19T02:50:41.552Z,89.57
2023-05-19T02:51:41.755Z,89.46
2023-05-19T02:52:42.343Z,89.24
2023-05-19T02:53:42.597Z,89.32
2023-05-19T02:54:42.998Z,89.56
2023-05-19T02:55:43.335Z,89.62
2023-05-19T02:56:43.745Z,89.42
2023-05-19T02:57:44.244Z,88.86
2023-05-19T02:58:44.257Z,88.58
2023-05-19T02:59:44.569Z,88.39
2023-05-19T03:00:44.992Z,88.47
2023-05-19T03:01:45.337Z,88.87
2023-05-19T03:02:45.987Z,88.7
2023-05-19T03:03:46.119Z,88.67
2023-05-19T03:04:46.244Z,88.38
2023-05-19T03:05:46.765Z,88.42
2023-05-19T03:06:47.401Z,88.24
2023-05-19T03:07:47.828Z,87.92
2023-05-19T03:08:49.063Z,87.83
2023-05-19T03:09:48.027Z,87.66
2023-05-19T03:10:48.955Z,87.52
2023-05-19T03:11:48.850Z,87.38
2023-05-19T03:12:49.284Z,87.37
2023-05-19T03:13:49.374Z,87.17
2023-05-19T03:14:50.323Z,87.21
2023-05-19T03:15:50.311Z,87.27
2023-05-19T03:16:50.783Z,87.27
2023-05-19T03:17:51.443Z,87.42
2023-05-19T03:18:51.501Z,87.22
2023-05-19T03:19:51.570Z,87.41
2023-05-19T03:20:52.293Z,87.79
2023-05-19T03:21:52.306Z,87.82
2023-05-19T03:22:52.718Z,87.96
2023-05-19T03:23:53.344Z,87.83
2023-05-19T03:24:53.664Z,87.65
2023-05-19T03:25:53.551Z,87.58
2023-05-19T03:26:54.068Z,87.23
2023-05-19T03:27:54.624Z,86.95
2023-05-19T03:28:54.699Z,86.7
2023-05-19T03:29:55.016Z,86.42
2023-05-19T03:30:55.443Z,86.46
2023-05-19T03:31:55.861Z,86.43
2023-05-19T03:32:56.340Z,86.25
2023-05-19T03:33:59.250Z,86.13
2023-05-19T03:34:56.904Z,85.89
2023-05-19T03:35:57.832Z,85.79
2023-05-19T03:36:57.662Z,85.8
2023-05-19T03:38:59.800Z,85.73
2023-05-19T03:40:00.521Z,85.64
2023-05-19T03:41:00.762Z,85.58
2023-05-19T03:42:00.932Z,85.6
2023-05-19T03:43:01.344Z,85.62
2023-05-19T03:44:02.904Z,85.56
2023-05-19T03:45:05.257Z,85.54
2023-05-19T03:46:02.773Z,85.6
2023-05-19T03:47:03.327Z,85.44
2023-05-19T03:48:03.711Z,85.22
2023-05-19T03:49:05.385Z,84.81
2023-05-19T03:50:04.675Z,84.95
2023-05-19T03:51:04.851Z,85.2
2023-05-19T03:52:05.399Z,85.5
2023-05-19T03:53:05.415Z,85.78
2023-05-19T03:54:06.038Z,86.09
2023-05-19T03:55:06.656Z,86.09
2023-05-19T03:56:07.078Z,86.4
2023-05-19T03:57:06.579Z,86.38
2023-05-19T03:58:07.195Z,86.39
2023-05-19T03:59:07.810Z,86.56
2023-05-19T04:00:09.445Z,86.23
2023-05-19T04:01:08.133Z,85.83
2023-05-19T04:02:08.658Z,85.39
2023-05-19T04:03:09.280Z,83.96
2023-05-19T04:04:09.348Z,83.73
2023-05-19T04:05:11.135Z,82.98
2023-05-19T04:06:10.008Z,82.69
2023-05-19T04:07:10.329Z,82.1
2023-05-19T04:08:10.831Z,81.86
2023-05-19T04:09:14.643Z,81.85
2023-05-19T04:10:15.142Z,81.75
2023-05-19T04:11:12.910Z,81.77
2023-05-19T04:12:13.230Z,81.88
2023-05-19T04:13:13.445Z,82.15
2023-05-19T04:14:13.527Z,82.88
2023-05-19T04:15:14.286Z,82.63
2023-05-19T04:16:15.195Z,82.26
2023-05-19T04:17:15.104Z,82.08
2023-05-19T04:18:15.442Z,81.96
2023-05-19T04:19:15.580Z,81.72
2023-05-19T04:20:15.932Z,81.89
2023-05-19T04:21:16.359Z,82.01
2023-05-19T04:22:16.775Z,81.87
2023-05-19T04:23:17.069Z,81.31
2023-05-19T04:24:17.411Z,80.91
2023-05-19T04:25:17.815Z,80.71
2023-05-19T04:26:18.336Z,80.74
2023-05-19T04:27:18.554Z,80.66
2023-05-19T04:28:19.057Z,80.24
2023-05-19T04:29:19.492Z,80.27
2023-05-19T04:30:19.793Z,80.02
2023-05-19T04:31:20.551Z,80.02
2023-05-19T04:32:20.739Z,80.22
2023-05-19T04:33:21.150Z,79.76
2023-05-19T04:34:21.181Z,79.46
2023-05-19T04:35:21.582Z,79.34
2023-05-19T04:36:22.009Z,79.33
2023-05-19T04:37:22.494Z,79.46
2023-05-19T04:38:22.638Z,79.43
2023-05-19T04:39:23.336Z,79.32
2023-05-19T04:40:23.434Z,79.56
2023-05-19T04:41:23.887Z,79.08
2023-05-19T04:42:24.297Z,78.98
2023-05-19T04:43:24.586Z,79
2023-05-19T04:44:25.000Z,78.75
2023-05-19T04:45:25.525Z,78.55
2023-05-19T04:46:27.114Z,78.27
2023-05-19T04:47:26.178Z,78.4
2023-05-19T04:48:26.569Z,77.13
2023-05-19T04:49:27.193Z,77.43
2023-05-19T04:50:27.299Z,77.3
2023-05-19T04:51:30.480Z,76.81
2023-05-19T04:52:28.233Z,77.12
2023-05-19T04:53:29.374Z,76.73
2023-05-19T04:54:28.976Z,76.74
2023-05-19T04:55:30.525Z,76.57
2023-05-19T04:56:29.710Z,75.93
2023-05-19T04:57:30.119Z,75.95
2023-05-19T04:58:30.522Z,75.97
2023-05-19T04:59:30.960Z,76.12
2023-05-19T05:00:31.659Z,76.11
2023-05-19T05:01:31.908Z,76.26
2023-05-19T05:02:34.866Z,75.79
2023-05-19T05:03:33.827Z,75.32
2023-05-19T05:04:32.738Z,74.9
2023-05-19T05:05:33.347Z,74.24
2023-05-19T05:06:33.774Z,74.48
2023-05-19T05:07:34.164Z,74.08
2023-05-19T05:08:34.586Z,74.12
2023-05-19T05:09:34.902Z,73.78
2023-05-19T05:10:35.377Z,73.72
2023-05-19T05:11:36.239Z,74.47
2023-05-19T05:12:36.560Z,74.38
2023-05-19T05:13:37.091Z,73.24
2023-05-19T05:14:37.183Z,74.07
2023-05-19T05:15:37.699Z,73.3
2023-05-19T05:16:39.093Z,73.13
2023-05-19T05:17:38.660Z,72.73
2023-05-19T05:18:38.955Z,72.87
2023-05-19T05:19:39.479Z,72.67
2023-05-19T05:20:40.302Z,72.79
2023-05-19T05:21:40.103Z,72.34
2023-05-19T05:22:40.516Z,72.2
2023-05-19T05:23:40.945Z,71.91
2023-05-19T05:24:41.249Z,72.35
2023-05-19T05:25:45.652Z,71.67
2023-05-19T05:26:43.730Z,70.42
2023-05-19T05:27:43.489Z,70.8
2023-05-19T05:28:43.824Z,70.68
2023-05-19T05:29:44.247Z,70.37
2023-05-19T05:30:44.675Z,70.29
2023-05-19T05:31:45.306Z,69.31
2023-05-19T05:32:46.137Z,70.19
2023-05-19T05:33:46.151Z,69.36
2023-05-19T05:34:46.525Z,69.45
2023-05-19T05:35:49.939Z,68.93
2023-05-19T05:36:47.536Z,71.22
2023-05-19T05:37:48.509Z,70.14
2023-05-19T05:38:48.299Z,68.95
2023-05-19T05:39:48.617Z,68.91
2023-05-19T05:40:49.027Z,68.68
2023-05-19T05:41:49.670Z,67.79
2023-05-19T05:42:49.971Z,67.95
2023-05-19T05:43:50.383Z,68.37
2023-05-19T05:44:55.121Z,67.22
2023-05-19T05:45:52.571Z,67.38
2023-05-19T05:46:53.676Z,66.77
2023-05-19T05:47:54.130Z,67.56
2023-05-19T05:48:54.640Z,67.19
2023-05-19T05:49:54.834Z,67.73
2023-05-19T05:50:57.396Z,66.79
2023-05-19T05:52:05.901Z,67.21
2023-05-19T05:53:02.725Z,66.88
2023-05-19T05:54:01.532Z,66.83
2023-05-19T05:55:01.011Z,67.19
2023-05-19T05:56:01.540Z,67.05
2023-05-19T05:57:02.139Z,65.78
2023-05-19T05:58:01.941Z,65.79
2023-05-19T05:59:02.365Z,65.53
2023-05-19T06:00:03.101Z,66.2
2023-05-19T06:01:04.128Z,65.02
2023-05-19T06:02:04.457Z,65.54
2023-05-19T06:03:04.116Z,64.79
2023-05-19T06:04:04.752Z,65.07
2023-05-19T06:05:05.339Z,64.85
2023-05-19T06:06:05.907Z,64.58
2023-05-19T06:07:05.692Z,64.67
2023-05-19T06:08:08.311Z,64.93
2023-05-19T06:09:06.312Z,64.47
2023-05-19T06:10:08.280Z,65.38
2023-05-19T06:11:07.477Z,64.93
2023-05-19T06:12:08.220Z,63.73
2023-05-19T06:13:08.811Z,64.87
2023-05-19T06:14:09.229Z,64.73
2023-05-19T06:15:10.572Z,62.91
2023-05-19T06:16:10.100Z,63.08
2023-05-19T06:17:10.890Z,63.21
2023-05-19T06:18:10.722Z,63.5
2023-05-19T06:19:11.186Z,63.69
2023-05-19T06:20:13.163Z,62.87
2023-05-19T06:21:12.037Z,61.19
2023-05-19T06:22:12.658Z,61.49
2023-05-19T06:23:13.172Z,61.09
2023-05-19T06:24:13.288Z,62.94
2023-05-19T06:25:13.610Z,61.92
2023-05-19T06:26:14.328Z,61.14
2023-05-19T06:27:14.765Z,61.57
2023-05-19T06:28:15.164Z,60.97
2023-05-19T06:29:15.769Z,60.38
2023-05-19T06:30:16.108Z,59.42
2023-05-19T06:31:16.327Z,62.01
2023-05-19T06:32:16.919Z,58.76
2023-05-19T06:33:17.122Z,58.49
2023-05-19T06:34:20.522Z,57.97
2023-05-19T06:35:18.473Z,58.51
2023-05-19T06:36:18.493Z,58.07
2023-05-19T06:37:19.004Z,58.2
2023-05-19T06:38:19.429Z,57.59
2023-05-19T06:39:19.847Z,57.92
2023-05-19T06:40:20.477Z,57.26
2023-05-19T06:41:20.683Z,57.88
2023-05-19T06:42:22.517Z,58.89
2023-05-19T06:43:21.290Z,58.3
2023-05-19T06:44:23.757Z,58.65
2023-05-19T06:45:22.376Z,57.97
2023-05-19T06:46:23.025Z,58.41
2023-05-19T06:47:23.222Z,58.58
2023-05-19T06:48:23.479Z,58.38
2023-05-19T06:49:27.069Z,58.16
2023-05-19T06:50:25.240Z,57.77
2023-05-19T06:51:25.054Z,57.49
2023-05-19T06:52:25.669Z,58.58
2023-05-19T06:53:26.078Z,58.33
2023-05-19T06:54:26.191Z,58.73
2023-05-19T06:55:26.902Z,57.57
2023-05-19T06:56:27.751Z,57.78
2023-05-19T06:57:28.256Z,57.6
2023-05-19T06:58:28.667Z,59.44
2023-05-19T06:59:28.978Z,59.13
2023-05-19T07:00:29.317Z,58.92
2023-05-19T07:01:29.956Z,57.35
2023-05-19T07:02:31.033Z,58.1
2023-05-19T07:03:30.830Z,58.21
2023-05-19T07:04:31.167Z,58.47
2023-05-19T07:05:31.889Z,58.59
2023-05-19T07:06:32.209Z,58.59
2023-05-19T07:07:32.625Z,58.81
2023-05-19T07:08:33.748Z,58.94
2023-05-19T07:09:33.252Z,57.83
2023-05-19T07:10:37.249Z,57.42
2023-05-19T07:11:35.020Z,57.8
2023-05-19T07:12:35.207Z,57.49
2023-05-19T07:13:35.759Z,57.19
2023-05-19T07:14:36.055Z,58.03
2023-05-19T07:15:36.474Z,57.82
2023-05-19T07:16:37.005Z,57.04
2023-05-19T07:17:37.988Z,56.73
2023-05-19T07:18:37.837Z,57.01
2023-05-19T07:19:38.125Z,56.2
2023-05-19T07:20:41.715Z,55.91
2023-05-19T07:21:39.162Z,56.25
2023-05-19T07:22:39.895Z,56.51
2023-05-19T07:23:40.078Z,55.29
2023-05-19T07:24:40.612Z,55.93
2023-05-19T07:25:41.540Z,55.91
2023-05-19T07:26:41.964Z,56.66
2023-05-19T07:27:42.063Z,56.39
2023-05-19T07:28:42.383Z,55.68
2023-05-19T07:29:42.607Z,54.72
2023-05-19T07:30:43.627Z,55.79
2023-05-19T07:31:43.671Z,54
2023-05-19T07:32:44.078Z,54.78
2023-05-19T07:33:44.792Z,54.39
2023-05-19T07:34:44.774Z,54.71
2023-05-19T07:35:45.516Z,55.28
2023-05-19T07:36:45.723Z,53.89
2023-05-19T07:37:46.448Z,53.84
2023-05-19T07:38:47.106Z,54.81
2023-05-19T07:39:46.964Z,55.07
2023-05-19T07:40:47.379Z,55.01
2023-05-19T07:41:47.998Z,56.13
2023-05-19T07:42:50.250Z,56.15
2023-05-19T07:43:49.947Z,54.5
2023-05-19T07:44:49.150Z,53.81
2023-05-19T07:45:52.183Z,53.99
2023-05-19T07:46:53.071Z,54.1
2023-05-19T07:47:50.943Z,54.64
2023-05-19T07:48:56.135Z,54.58
2023-05-19T07:50:06.605Z,54.94
2023-05-19T07:51:04.461Z,54.1
2023-05-19T07:52:15.618Z,54.17
2023-05-19T07:53:10.530Z,54.52
2023-05-19T07:54:13.760Z,53.52
2023-05-19T07:55:12.350Z,54.59
2023-05-19T07:56:12.155Z,52.66
2023-05-19T07:57:15.442Z,53.52
2023-05-19T07:58:13.095Z,55.21
2023-05-19T07:59:13.291Z,55.23
2023-05-19T08:00:14.761Z,55.63
2023-05-19T08:01:14.374Z,55.61
2023-05-19T08:02:14.816Z,54.21
2023-05-19T08:03:15.571Z,53.55
2023-05-19T08:04:15.557Z,53.5
2023-05-19T08:05:16.107Z,52.61
2023-05-19T08:06:16.435Z,51.51
2023-05-19T08:07:17.056Z,53.25
2023-05-19T08:08:17.343Z,52.58
2023-05-19T08:09:17.803Z,52.93
2023-05-19T08:10:18.498Z,54.04
2023-05-19T08:11:18.506Z,52.04
2023-05-19T08:12:19.234Z,51.61
2023-05-19T08:13:19.664Z,50.5
2023-05-19T08:14:19.851Z,53.25
2023-05-19T08:15:20.896Z,50.96
2023-05-19T08:16:20.877Z,50.63
2023-05-19T08:17:21.210Z,50.29
2023-05-19T08:18:25.422Z,51.69
2023-05-19T08:19:23.991Z,52.28
2023-05-19T08:20:26.375Z,50.29
2023-05-19T08:21:23.933Z,50.04
2023-05-19T08:22:24.325Z,50.91
2023-05-19T08:23:24.841Z,51.57
2023-05-19T08:24:25.168Z,51.27
2023-05-19T08:25:26.093Z,51.73
2023-05-19T08:26:26.196Z,50.35
2023-05-19T08:27:26.607Z,51.65
2023-05-19T08:28:27.216Z,50.1
2023-05-19T08:29:27.562Z,50.55
2023-05-19T08:30:28.062Z,50.11
2023-05-19T08:31:29.818Z,51.23
2023-05-19T08:32:28.710Z,50.9
2023-05-19T08:33:29.319Z,50.66
2023-05-19T08:34:29.611Z,50.43
2023-05-19T08:35:32.814Z,51.25
2023-05-19T08:36:30.680Z,52.35
2023-05-19T08:37:32.035Z,50.88
2023-05-19T08:38:31.797Z,50.7
2023-05-19T08:39:32.425Z,50.8
2023-05-19T08:40:35.496Z,50.83
2023-05-19T08:41:34.277Z,51.45
2023-05-19T08:42:34.199Z,51.46
2023-05-19T08:43:36.049Z,51.79
2023-05-19T08:44:35.644Z,50.98
2023-05-19T08:45:35.730Z,48.67
2023-05-19T08:46:36.413Z,49.8
2023-05-19T08:47:36.608Z,49.11
2023-05-19T08:48:42.314Z,49.51
2023-05-19T08:49:46.834Z,49.32
2023-05-19T08:50:51.961Z,51.15
2023-05-19T08:52:55.864Z,51.03
2023-05-19T08:57:16.766Z,49.07
2023-05-19T08:58:18.293Z,49.09
2023-05-19T08:59:19.953Z,49.6
2023-05-19T09:00:16.427Z,50.19
2023-05-19T09:01:23.271Z,48.7
2023-05-19T09:02:27.083Z,48.45
2023-05-19T09:05:31.472Z,46.98
2023-05-19T09:07:36.305Z,48.06
2023-05-19T09:08:33.838Z,48.95
2023-05-19T09:09:34.155Z,49.37
2023-05-19T09:10:34.684Z,48.06
2023-05-19T09:11:35.104Z,47.87
2023-05-19T09:12:36.019Z,47.53
2023-05-19T09:13:36.239Z,48.07
2023-05-19T09:14:37.561Z,47.99
2023-05-19T09:15:40.575Z,48.06
2023-05-19T09:16:39.045Z,47.58
2023-05-19T09:17:39.188Z,49.36
2023-05-19T09:18:39.919Z,47.04
2023-05-19T09:19:43.647Z,47.02
2023-05-19T09:20:44.882Z,48.17
2023-05-19T09:21:43.605Z,47.8
2023-05-19T09:22:49.274Z,48.11
2023-05-19T09:23:47.682Z,48.2
2023-05-19T09:24:47.917Z,47.75
2023-05-19T09:25:51.886Z,48.56
2023-05-19T09:26:49.831Z,48.95
2023-05-19T09:27:50.160Z,47.95
2023-05-19T09:28:50.459Z,48.24
2023-05-19T09:29:50.767Z,46.78
2023-05-19T09:31:56.133Z,46.21
2023-05-19T09:32:55.639Z,47.18
2023-05-19T09:33:55.826Z,45.4
2023-05-19T09:34:56.241Z,47.51
2023-05-19T09:35:57.467Z,45.95
2023-05-19T09:36:57.275Z,46.62
2023-05-19T09:37:57.795Z,46.73
2023-05-19T09:38:57.898Z,46.66
2023-05-19T09:39:59.965Z,47.27
2023-05-19T09:41:00.894Z,47.27
2023-05-19T09:41:59.359Z,46.36
2023-05-19T09:42:59.762Z,45.83
2023-05-19T09:44:00.331Z,45.57
2023-05-19T09:45:03.073Z,46.27
2023-05-19T09:46:07.216Z,45.32
2023-05-19T09:47:05.034Z,44.84
2023-05-19T09:48:05.895Z,44.84
2023-05-19T09:49:09.292Z,45.61
2023-05-19T09:50:11.195Z,44.96
2023-05-19T09:51:09.047Z,44.97
2023-05-19T09:52:10.503Z,47.85
2023-05-19T09:53:12.132Z,45.34
2023-05-19T09:54:15.109Z,45.33
2023-05-19T09:55:13.543Z,45.16
2023-05-19T09:56:15.033Z,45.02
2023-05-19T09:57:16.450Z,45.15
2023-05-19T09:58:18.561Z,46.39
2023-05-19T09:59:19.333Z,45.99
2023-05-19T10:00:19.128Z,44.16
2023-05-19T10:01:18.070Z,42.79
2023-05-19T10:02:19.565Z,43.97
2023-05-19T10:03:18.640Z,42.98
2023-05-19T10:04:19.379Z,44.98
2023-05-19T10:05:20.815Z,43.18
2023-05-19T10:06:23.280Z,44.82
2023-05-19T10:07:22.968Z,43.79
2023-05-19T10:08:22.375Z,43.4
2023-05-19T10:09:26.262Z,43.47
2023-05-19T10:10:23.810Z,43.94
2023-05-19T10:11:25.556Z,43.25
2023-05-19T10:12:30.385Z,43.48
2023-05-19T10:13:29.896Z,45.16
2023-05-19T10:14:29.827Z,43.87
2023-05-19T10:15:29.063Z,44.28
2023-05-19T10:16:31.798Z,43.57
2023-05-19T10:17:29.814Z,42.56
2023-05-19T10:18:33.592Z,43.42
2023-05-19T10:19:32.909Z,43.54
2023-05-19T10:20:32.907Z,43.7
2023-05-19T10:21:32.286Z,43.02
2023-05-19T10:22:33.734Z,43.39
2023-05-19T10:23:32.924Z,43.01
2023-05-19T10:24:36.606Z,43.62
2023-05-19T10:25:35.449Z,43.53
2023-05-19T10:26:36.110Z,43.16
2023-05-19T10:27:37.547Z,43.33
2023-05-19T10:28:41.098Z,43.53
2023-05-19T10:29:41.225Z,43.18
2023-05-19T10:30:45.765Z,43.16
2023-05-19T10:31:45.278Z,43.15
2023-05-19T10:32:46.873Z,43.97
2023-05-19T10:40:06.180Z,42.37
2023-05-19T10:46:17.545Z,43.17
2023-05-19T10:48:21.705Z,41.78
2023-05-19T10:49:22.044Z,43.81
2023-05-19T10:50:21.727Z,41.91
2023-05-19T10:52:26.112Z,41.71
2023-05-19T10:55:46.548Z,41.28
2023-05-19T10:56:39.489Z,40.71
2023-05-19T10:57:37.055Z,40.88
2023-05-19T10:59:39.192Z,41.51
2023-05-19T11:00:40.129Z,40.94
2023-05-19T11:01:40.186Z,41.43
2023-05-19T11:02:43.528Z,40.99
2023-05-19T11:05:49.406Z,41.74
2023-05-19T11:06:52.548Z,42.5
2023-05-19T11:09:56.573Z,41.41
2023-05-19T11:10:57.704Z,43.09
2023-05-19T11:13:00.607Z,40.9
2023-05-19T11:14:00.792Z,41.44
2023-05-19T11:18:05.670Z,42.02
2023-05-19T11:19:06.903Z,41.89
2023-05-19T11:20:09.223Z,41.49
2023-05-19T11:21:06.839Z,43.01
2023-05-19T11:22:13.778Z,39.15
2023-05-19T11:23:16.254Z,39.35
2023-05-19T11:26:16.131Z,39.65
2023-05-19T11:28:21.994Z,39.29
2023-05-19T11:29:21.374Z,39.91
2023-05-19T11:30:20.552Z,39.19
2023-05-19T11:31:22.735Z,40.53
2023-05-19T11:32:21.928Z,40.04
2023-05-19T11:33:21.823Z,39.39
2023-05-19T11:34:23.273Z,39.75
2023-05-19T11:35:24.686Z,40.36
2023-05-19T11:36:23.230Z,40.5
2023-05-19T11:37:23.496Z,41.54
2023-05-19T11:38:23.896Z,41
2023-05-19T11:39:25.728Z,40.73
2023-05-19T11:40:26.472Z,40.62
2023-05-19T11:41:25.234Z,40.79
2023-05-19T11:42:27.192Z,41.21
2023-05-19T11:43:26.568Z,41.3
2023-05-19T11:44:26.805Z,41.31
2023-05-19T11:45:28.469Z,40.93
2023-05-19T11:46:28.285Z,40.7
2023-05-19T11:47:28.261Z,39.8
2023-05-19T11:48:30.212Z,38.39
2023-05-19T11:49:29.404Z,38.06
2023-05-19T11:50:30.738Z,38.8
2023-05-19T11:51:29.624Z,39.07
2023-05-19T11:52:30.257Z,37.5
2023-05-19T11:53:31.199Z,38.6
2023-05-19T11:54:33.213Z,39.29
2023-05-19T11:55:31.892Z,39.84
2023-05-19T11:56:34.969Z,40.19
2023-05-19T11:57:33.750Z,41.52
2023-05-19T11:58:32.928Z,39.76
2023-05-19T11:59:35.989Z,40.75
2023-05-19T12:00:40.378Z,41.21
2023-05-19T12:01:38.269Z,40.83
2023-05-19T12:02:38.765Z,40.71
2023-05-19T12:03:39.206Z,39.26
2023-05-19T12:04:39.515Z,39.78
2023-05-19T12:05:49.393Z,39.06
2023-05-19T12:06:42.661Z,40.75
2023-05-19T12:07:42.710Z,40.76
2023-05-19T12:08:43.742Z,39.38
2023-05-19T12:09:47.455Z,40.3
2023-05-19T12:10:48.479Z,40.64
2023-05-19T12:11:46.126Z,40.83
2023-05-19T12:12:46.656Z,39.78
2023-05-19T12:13:48.000Z,39.23
2023-05-19T12:14:53.921Z,39.59
2023-05-19T12:16:01.761Z,40
2023-05-19T12:16:58.960Z,40.64
2023-05-19T12:20:16.516Z,39.86
2023-05-19T12:21:06.799Z,38.29
2023-05-19T12:22:07.690Z,38.42
2023-05-19T12:23:08.159Z,39.34
2023-05-19T12:24:07.698Z,38.74
2023-05-19T12:25:08.864Z,39.02
2023-05-19T12:26:08.807Z,39.93
2023-05-19T12:28:10.316Z,38.09
2023-05-19T12:29:13.063Z,37.35
2023-05-19T12:30:12.773Z,39.14
2023-05-19T12:31:12.809Z,40.23
2023-05-19T12:32:11.690Z,39.73
2023-05-19T12:33:15.497Z,38.67
2023-05-19T12:34:13.676Z,37.07
2023-05-19T12:35:14.849Z,37.83
2023-05-19T12:36:13.845Z,38.49
2023-05-19T12:37:14.273Z,38.66
2023-05-19T12:38:14.985Z,38.26
2023-05-19T12:39:15.188Z,38.74
2023-05-19T12:41:17.868Z,38.56
2023-05-19T12:42:18.191Z,38.55
2023-05-19T12:44:22.506Z,37.93
2023-05-19T12:45:23.416Z,37.46
2023-05-19T12:46:23.491Z,38.68
2023-05-19T12:48:28.582Z,37.58
2023-05-19T12:49:27.442Z,37.33
2023-05-19T12:50:31.138Z,37.84
2023-05-19T12:51:28.928Z,37.05
2023-05-19T12:52:30.114Z,37.66
2023-05-19T12:53:30.026Z,37.65
2023-05-19T12:56:37.599Z,36.67
2023-05-19T12:57:39.116Z,37.86
2023-05-19T12:58:38.498Z,36.75
2023-05-19T12:59:43.060Z,37.26
2023-05-19T13:01:43.856Z,37.14
2023-05-19T13:03:45.511Z,40.16
2023-05-19T13:04:45.753Z,37.93
2023-05-19T13:05:49.180Z,38.69
2023-05-19T13:06:46.906Z,38.11
2023-05-19T13:08:50.190Z,39.8
2023-05-19T13:09:48.960Z,38.53
2023-05-19T13:10:48.651Z,38.89
2023-05-19T13:11:50.639Z,37.68
2023-05-19T13:12:49.520Z,38.73
2023-05-19T13:13:49.854Z,38.48
2023-05-19T13:14:50.251Z,40.69
2023-05-19T13:15:50.349Z,37.03
2023-05-19T13:16:51.101Z,37.79
2023-05-19T13:17:51.725Z,38.96
2023-05-19T13:18:51.751Z,39.51
2023-05-19T13:19:52.650Z,38.68
2023-05-19T13:20:56.430Z,38.94
2023-05-19T13:21:53.964Z,39.8
2023-05-19T13:22:54.251Z,39.3
2023-05-19T13:23:55.112Z,38.45
2023-05-19T13:24:55.119Z,38.48
2023-05-19T13:25:55.631Z,38.39
2023-05-19T13:26:56.215Z,37.99
2023-05-19T13:27:56.877Z,39.8
2023-05-19T13:28:56.800Z,38.69
2023-05-19T13:29:57.608Z,38.92
2023-05-19T13:30:57.417Z,38.82
2023-05-19T13:31:59.770Z,38.91
2023-05-19T13:32:58.896Z,38.84
2023-05-19T13:33:59.186Z,38.89
2023-05-19T13:35:00.935Z,39.2
2023-05-19T13:36:00.310Z,37.88
2023-05-19T13:37:00.869Z,38.09
2023-05-19T13:38:00.858Z,39.03
2023-05-19T13:39:01.449Z,39.32
2023-05-19T13:40:02.600Z,39.2
2023-05-19T13:41:02.709Z,39.26
2023-05-19T13:42:02.711Z,38.15
2023-05-19T13:43:04.067Z,38.49
2023-05-19T13:44:03.247Z,38.42
2023-05-19T13:45:04.247Z,37.84
2023-05-19T13:46:04.583Z,37.72
2023-05-19T13:47:04.834Z,39.34
2023-05-19T13:48:05.433Z,39.55
2023-05-19T13:49:05.018Z,39.25
2023-05-19T13:50:06.452Z,37.68
2023-05-19T13:51:05.847Z,37.81
2023-05-19T13:52:06.559Z,37.99
2023-05-19T13:53:06.688Z,39.03
2023-05-19T13:54:07.095Z,38.46
2023-05-19T13:55:07.915Z,39.22
2023-05-19T13:56:08.042Z,38.01
2023-05-19T13:57:08.646Z,37.83
2023-05-19T13:58:11.249Z,37.54
2023-05-19T13:59:08.966Z,38.51
2023-05-19T14:00:10.527Z,36.87
2023-05-19T14:01:09.696Z,37.28
2023-05-19T14:02:12.980Z,37.39
2023-05-19T14:03:10.474Z,37.65
2023-05-19T14:04:11.169Z,38.5
2023-05-19T14:05:11.068Z,37.5
2023-05-19T14:06:11.594Z,38
2023-05-19T14:07:11.981Z,38.35
2023-05-19T14:08:13.526Z,37.32
2023-05-19T14:09:14.250Z,36.58
2023-05-19T14:10:14.672Z,36.52
2023-05-19T14:11:19.922Z,36.85
2023-05-19T14:12:18.147Z,37.68
2023-05-19T14:13:32.627Z,39
2023-05-19T14:14:21.758Z,37.26
2023-05-19T14:15:22.385Z,36.29
2023-05-19T14:16:23.249Z,36.91
2023-05-19T14:17:22.929Z,38.14
2023-05-19T14:18:23.491Z,38.1
2023-05-19T14:19:23.647Z,38.97
2023-05-19T14:20:24.273Z,39.63
2023-05-19T14:21:25.203Z,38.55
2023-05-19T14:22:24.791Z,39.44
2023-05-19T14:23:25.408Z,39.76
2023-05-19T14:24:25.612Z,40.53
2023-05-19T14:25:25.825Z,40.15